Flight Track Log - Related Links

Times and Time Zones

All times are in EDT time to prevent confusion due to time zone crossing. See the RPA3275 flight status page for this flight to view local times or setup timezone preferences in your user account.

Time Position Orientation Groundspeed Altitude Reporting Facility
EDT Latitude Longitude Course Direction KTS MPH feet Rate Location/Type
Sun 08:51:15 AM 38.8833 -77.0667 138° Southeast 169 194 2,000  Level Potomac TRACON
Sun 08:51:51 AM 38.9144 -77.0989 321° Northwest 210 242 3,100 2,452 Climbing Washington Center
Sun 08:52:48 AM 38.9658 -77.1561 319° Northwest 259 298 5,800 2,847 Climbing Washington Center
Sun 08:53:00 AM 38.5495 -76.7167 180° South  Level FlightAware Approximate
Sun 08:53:49 AM 39.0389 -77.1336 13° North 285 328 8,700  Level Washington Center
Sun 08:54:00 AM 38.4521 -76.7004 171° South  Level FlightAware Approximate
Sun 08:54:50 AM 39.1044 -77.0733 36° Northeast 295 339 11,300  Level Washington Center
Sun 08:55:00 AM 38.3667 -76.6834 90° East  Level FlightAware Approximate
Sun 08:55:48 AM 39.0867 -76.9769 103° East 334 384 13,700  Level Washington Center
Sun 08:56:00 AM 38.7774 -76.9511 138° Southeast  Level FlightAware Approximate
Sun 08:57:03 AM 39.0167 -76.8500 125° Southeast 353 406 16,500  Level Potomac TRACON
Sun 08:58:03 AM 38.9333 -76.7667 142° Southeast 379 436 17,700 1,402 Climbing Potomac TRACON
Sun 08:58:50 AM 38.8639 -76.7594 175° South 377 434 19,000 729 Climbing Washington Center
Sun 08:59:50 AM 38.7639 -76.7497 176° South 406 467 19,000  Level Washington Center
Sun 09:00:48 AM 38.6597 -76.7403 176° South 394 453 19,000  Level Washington Center
Sun 09:01:49 AM 38.5786 -76.7308 175° South 383 441 19,000 744 Level Washington Center
Sun 09:02:49 AM 38.4642 -76.7161 174° South 378 435 20,500 1,388 Climbing Washington Center
Sun 09:03:50 AM 38.3642 -76.7011 173° South 378 435 21,800 1,563 Climbing Washington Center
Sun 09:04:48 AM 38.2517 -76.6836 173° South 373 429 23,600 1,714 Climbing Washington Center
Sun 09:05:49 AM 38.1433 -76.6717 175° South 373 429 25,200 1,475 Climbing Washington Center
Sun 09:06:50 AM 38.0372 -76.6569 174° South 383 441 26,600 1,271 Climbing Washington Center
Sun 09:07:47 AM 37.9286 -76.6500 177° South 389 448 27,700 1,169 Climbing Washington Center
Sun 09:08:48 AM 37.8181 -76.6642 186° South 394 453 28,900 1,328 Climbing Washington Center
Sun 09:09:49 AM 37.7094 -76.6786 186° South 394 453 30,400 1,082 Climbing Washington Center
Sun 09:10:50 AM 37.6008 -76.6928 186° South 394 453 31,100 706 Climbing Washington Center
Sun 09:11:48 AM 37.4881 -76.7067 186° South 399 459 31,800 706 Climbing Washington Center
Sun 09:12:49 AM 37.3814 -76.7339 191° South 404 465 32,500 689 Climbing Washington Center
Sun 09:13:50 AM 37.2767 -76.7794 199° South 404 465 33,200 706 Climbing Washington Center
Sun 09:14:48 AM 37.1742 -76.8247 199° South 398 458 33,900 403 Climbing Washington Center
Sun 09:15:49 AM 37.0692 -76.8700 199° South 403 464 34,000 50 Climbing Washington Center
Sun 09:16:49 AM 36.9644 -76.9125 198° South 403 464 34,000  Level Washington Center
Sun 09:17:50 AM 36.8556 -76.9597 199° South 408 470 34,000  Level Washington Center
Sun 09:18:48 AM 36.7486 -77.0019 198° South 408 470 34,000  Level Washington Center
Sun 09:19:49 AM 36.6397 -77.0467 198° South 408 470 34,000  Level Washington Center
Sun 09:20:48 AM 36.5347 -77.0886 198° South 408 470 34,000  Level Washington Center
Sun 09:21:49 AM 36.4278 -77.1356 199° South 408 470 34,000  Level Washington Center
Sun 09:22:50 AM 36.3208 -77.1800 199° South 408 470 34,000  Level Washington Center
Sun 09:23:48 AM 36.2158 -77.2242 199° South 408 470 34,000  Level Washington Center
Sun 09:24:49 AM 36.1214 -77.2583 196° South 399 459 34,000  Level Washington Center
Sun 09:25:50 AM 36.0125 -77.3022 198° South 404 465 34,000  Level Washington Center
Sun 09:26:50 AM 35.9053 -77.3461 198° South 409 471 34,000  Level Washington Center
Sun 09:27:48 AM 35.7919 -77.3922 198° South 402 463 34,000  Level Washington Center
Sun 09:28:49 AM 35.6828 -77.4333 197° South 402 463 34,000  Level Washington Center
Sun 09:29:50 AM 35.5778 -77.4794 200° South 407 468 34,000  Level Washington Center
Sun 09:30:47 AM 35.4686 -77.5200 197° South 407 468 34,000  Level Washington Center
Sun 09:31:48 AM 35.3658 -77.5661 200° South 407 468 34,000  Level Washington Center
Sun 09:32:49 AM 35.2872 -77.6431 219° Southwest 378 435 34,000  Level Washington Center
Sun 09:33:49 AM 35.2086 -77.7247 220° Southwest 378 435 34,000  Level Washington Center
Sun 09:34:50 AM 35.1319 -77.8042 220° Southwest 373 429 34,000  Level Washington Center
Sun 09:35:49 AM 35.0533 -77.8856 220° Southwest 373 429 34,000  Level Washington Center
Sun 09:36:50 AM 34.9767 -77.9672 221° Southwest 373 429 34,000  Level Washington Center
Sun 09:38:52 AM 34.8206 -78.1233 219° Southwest 357 411 34,000  Level Jacksonville Center
Sun 09:39:52 AM 34.7442 -78.2008 220° Southwest 357 411 34,000  Level Jacksonville Center
Sun 09:40:52 AM 34.6742 -78.2831 224° Southwest 357 411 34,000  Level Jacksonville Center
Sun 09:41:52 AM 34.5956 -78.3603 219° Southwest 362 417 34,000  Level Jacksonville Center
Sun 09:42:53 AM 34.5153 -78.4453 221° Southwest 362 417 34,000  Level Jacksonville Center
Sun 09:43:52 AM 34.4428 -78.5194 220° Southwest 362 417 34,000  Level Jacksonville Center
Sun 09:44:52 AM 34.3642 -78.5964 219° Southwest 367 422 34,000  Level Jacksonville Center
Sun 09:45:53 AM 34.2853 -78.6756 220° Southwest 367 422 34,000  Level Jacksonville Center
Sun 09:46:52 AM 34.2022 -78.7475 216° Southwest 367 422 34,000  Level Jacksonville Center
Sun 09:47:52 AM 34.1019 -78.8050 205° Southwest 378 435 34,000  Level Jacksonville Center
Sun 09:48:53 AM 34.0011 -78.8522 201° Southwest 391 450 34,000  Level Jacksonville Center
Sun 09:49:52 AM 33.9028 -78.9017 203° Southwest 396 456 34,000  Level Jacksonville Center
Sun 09:50:52 AM 33.8019 -78.9514 202° Southwest 391 450 34,000  Level Jacksonville Center
Sun 09:51:53 AM 33.7014 -79.0008 202° Southwest 391 450 34,000  Level Jacksonville Center
Sun 09:52:52 AM 33.6028 -79.0525 204° Southwest 391 450 34,000  Level Jacksonville Center
Sun 09:53:52 AM 33.5019 -79.1017 202° Southwest 391 450 34,000  Level Jacksonville Center
Sun 09:54:53 AM 33.4053 -79.1481 202° Southwest 386 444 34,000  Level Jacksonville Center
Sun 09:55:52 AM 33.3044 -79.1994 203° Southwest 391 450 34,000  Level Jacksonville Center
Sun 09:56:53 AM 33.2036 -79.2508 203° Southwest 391 450 34,000  Level Jacksonville Center
Sun 09:57:53 AM 33.1008 -79.2997 202° Southwest 391 450 34,000  Level Jacksonville Center
Sun 09:58:52 AM 32.9981 -79.3533 204° Southwest 391 450 34,000  Level Jacksonville Center
Sun 09:59:52 AM 32.8969 -79.4019 202° Southwest 391 450 34,000  Level Jacksonville Center
Sun 10:00:53 AM 32.7961 -79.4528 203° Southwest 391 450 34,000 -150 Level Jacksonville Center
Sun 10:01:52 AM 32.6972 -79.5008 202° Southwest 391 450 33,700 -605 Descending Jacksonville Center
Sun 10:02:52 AM 32.6006 -79.5489 203° Southwest 385 443 32,800 -950 Descending Jacksonville Center
Sun 10:03:52 AM 32.5017 -79.5992 203° Southwest 385 443 31,800 -950 Descending Jacksonville Center
Sun 10:04:52 AM 32.4006 -79.6472 202° Southwest 390 449 30,900 -950 Descending Jacksonville Center
Sun 10:05:52 AM 32.3017 -79.6975 203° Southwest 390 449 29,900 -992 Descending Jacksonville Center
Sun 10:06:53 AM 32.2025 -79.7450 202° Southwest 390 449 28,900 -950 Descending Jacksonville Center
Sun 10:07:52 AM 32.1014 -79.7950 203° Southwest 390 449 28,000 -454 Descending Jacksonville Center
Sun 10:08:52 AM 32.0006 -79.8450 203° Southwest 390 449 28,000  Level Jacksonville Center
Sun 10:09:53 AM 31.8994 -79.8950 203° Southwest 390 449 28,000  Level Jacksonville Center
Sun 10:10:52 AM 31.7942 -79.9447 202° Southwest 402 463 28,000  Level Jacksonville Center
Sun 10:11:52 AM 31.6847 -80.0019 204° Southwest 413 475 28,000  Level Jacksonville Center
Sun 10:12:53 AM 31.5772 -80.0492 201° Southwest 413 475 28,000  Level Jacksonville Center
Sun 10:13:53 AM 31.4697 -80.1036 203° Southwest 413 475 28,000  Level Jacksonville Center
Sun 10:14:52 AM 31.3644 -80.1481 200° South 413 475 28,000  Level Jacksonville Center
Sun 10:15:53 AM 31.2444 -80.2050 202° Southwest 413 475 28,000  Level Jacksonville Center
Sun 10:16:52 AM 31.1392 -80.2614 205° Southwest 413 475 28,000  Level Jacksonville Center
Sun 10:17:52 AM 31.0275 -80.3131 202° Southwest 418 481 28,000  Level Jacksonville Center
Sun 10:18:53 AM 30.9158 -80.3647 202° Southwest 431 496 28,000  Level Jacksonville Center
Sun 10:19:52 AM 30.8039 -80.4136 201° Southwest 437 503 28,000  Level Jacksonville Center
Sun 10:20:52 AM 30.6944 -80.4672 203° Southwest 432 497 28,000  Level Jacksonville Center
Sun 10:21:53 AM 30.5828 -80.5206 202° Southwest 432 497 28,000  Level Jacksonville Center
Sun 10:22:52 AM 30.4731 -80.5739 203° Southwest 432 497 28,000  Level Jacksonville Center
Sun 10:23:52 AM 30.3633 -80.6247 202° Southwest 432 497 28,000  Level Jacksonville Center
Sun 10:24:53 AM 30.2514 -80.6781 202° Southwest 432 497 28,000  Level Jacksonville Center
Sun 10:25:52 AM 30.1397 -80.7286 201° Southwest 432 497 28,000  Level Jacksonville Center
Sun 10:26:52 AM 30.0297 -80.7789 202° Southwest 432 497 28,000  Level Jacksonville Center
Sun 10:27:53 AM 29.9158 -80.8317 202° Southwest 432 497 28,000  Level Jacksonville Center
Sun 10:28:52 AM 29.7950 -80.8511 188° South 432 497 28,000  Level Jacksonville Center
Sun 10:29:53 AM 29.6672 -80.8275 171° South 438 504 28,000  Level Jacksonville Center
Sun 10:30:53 AM 29.5356 -80.8064 172° South 458 527 28,000  Level Jacksonville Center
Sun 10:31:53 AM 29.4078 -80.7828 171° South 468 539 28,000  Level Jacksonville Center
Sun 10:32:52 AM 29.2758 -80.7642 173° South 468 539 28,000  Level Jacksonville Center
Sun 10:33:53 AM 29.1461 -80.7433 172° South 468 539 28,000  Level Jacksonville Center
Sun 10:34:59 AM 29.0122 -80.7269 174° South 473 544 28,000  Level Miami Center
Sun 10:35:59 AM 28.8856 -80.6989 169° South 479 551 28,000  Level Miami Center
Sun 10:36:59 AM 28.7622 -80.6378 157° South 479 551 28,000  Level Miami Center
Sun 10:37:59 AM 28.6286 -80.5600 153° Southeast 490 564 28,000  Level Miami Center
Sun 10:38:59 AM 28.5053 -80.4897 153° Southeast 496 571 28,000  Level Miami Center
Sun 10:39:59 AM 28.3817 -80.4172 153° Southeast 501 577 28,000 -950 Level Miami Center
Sun 10:40:59 AM 28.2747 -80.3575 154° Southeast 501 577 26,100 -2,150 Descending Miami Center
Sun 10:41:59 AM 28.1594 -80.2878 152° Southeast 485 558 23,700 -2,500 Descending Miami Center
Sun 10:42:59 AM 28.0331 -80.2489 165° South 440 506 21,100 -2,350 Descending Miami Center
Sun 10:43:59 AM 27.9208 -80.2289 171° South 422 486 19,000 -2,050 Descending Miami Center
Sun 10:44:59 AM 27.8086 -80.2139 173° South 417 480 17,000 -1,500 Descending Miami Center
Sun 10:45:59 AM 27.7108 -80.1969 171° South 405 466 16,000 -600 Descending Miami Center
Sun 10:46:59 AM 27.6025 -80.1822 173° South 400 460 15,800 -1,300 Descending Miami Center
Sun 10:47:59 AM 27.4903 -80.1625 171° South 384 442 13,400 -2,150 Descending Miami Center
Sun 10:48:59 AM 27.3944 -80.1481 172° South 369 425 11,500 -1,700 Descending Miami Center
Sun 10:49:59 AM 27.3031 -80.1361 173° South 346 398 10,000 -750 Descending Miami Center
Sun 10:50:59 AM 27.2303 -80.1200 169° South 314 361 10,000 -700 Level Miami Center
Sun 10:51:59 AM 27.1539 -80.0828 157° South 300 345 8,600 -1,500 Descending Miami Center
Sun 10:52:59 AM 27.0839 -80.0294 146° Southeast 285 328 7,000 -1,650 Descending Miami Center
Sun 10:53:59 AM 27.0158 -79.9975 157° South 270 311 5,300 -1,500 Descending Miami Center
Sun 10:54:59 AM 26.9428 -79.9908 175° South 264 304 4,000 -650 Descending Miami Center
Sun 10:55:59 AM 26.8875 -80.0406 219° Southwest 252 290 4,000  Level Miami Center
Sun 10:56:59 AM 26.8236 -80.0969 218° Southwest 270 311 4,000  Level Miami Center
Sun 10:58:00 AM 26.7943 -80.1967 265° West  Level FlightAware Approximate
Sun 11:05:00 AM 26.6832 -80.0956 110° East  Level Estimated
Sun 11:06:00 AM 26.6832 -80.0956 110° East  Level Estimated
Sun 11:07:00 AM 26.6832 -80.0956 110° East  Level Estimated
Sun 11:08:00 AM 26.6832 -80.0956 110° East  Level Estimated
Sun 11:09:00 AM 26.6832 -80.0956 110° East  Level Estimated
Sun 11:10:00 AM 26.6832 -80.0956 110° East  Level Estimated
Sun 11:11:00 AM 26.6832 -80.0956 110° East  Level Estimated
Sun 11:12:00 AM 26.6832 -80.0956 110° East  Level Estimated
Sun 11:13:00 AM 26.6832 -80.0956 110° East  Level Estimated

Login

Don't have an account? Register now (free) for customized features, flight alerts, and more!